Portchester, New York
Current Conditions -  °F | °C
As of 8:56 AM on Friday 24 Oct 2014 (Local Time) from KHPN Reporting Station
Broken Clouds Broken Clouds  
Wind Chill: 45°   Ceiling: 3200
Heat Index: 49°   Visibility: 10mi
Dew Point: 44°   Wind: 10mph
Humidity: 83%   Direction: 310°NW
Pressure: 29.8"   Gusts: NA
Location:  41.0136°N, 73.6759°W
Report Text: KHPN 241256Z 31009KT 10SM SCT022 BKN032 09/07 A2980 RMK AO2 RAB1159E34 SLP092 P0000 T00940067
Loading
Personal Weather Stations






























Interactive Weather Map
Tropical Storm Tracking
New forecast layout! Learn more

10-Day Weather Forecast

Advertisements
Track Severe Weather on mobile